Time;durP1;ratioP1;P1;durP2;ratioP2;P2;SDS_P1;SDS_P2;PMS_P1;PMS_P2;Temp;Humidity;BMP_temperature;BMP_pressure;BME280_temperature;BME280_humidity;BME280_pressure;Samples;Min_cycle;Max_cycle;Signal;HPM_P1;HPM_P2
2023/06/23 00:01:36;;;;;;;26.83;17.23;;;16.80;99.90;;;;;;5054934;28;20074;-83
2023/06/23 00:04:02;;;;;;;24.13;15.98;;;16.80;99.90;;;;;;5051758;28;20546;-84
2023/06/23 00:06:28;;;;;;;21.98;15.82;;;16.80;99.90;;;;;;5035884;28;20589;-82
2023/06/23 00:08:54;;;;;;;20.55;16.23;;;16.80;99.90;;;;;;5041595;28;20075;-83
2023/06/23 00:11:20;;;;;;;24.27;16.27;;;16.80;99.90;;;;;;5042059;28;20083;-83
2023/06/23 00:13:47;;;;;;;21.17;14.90;;;16.80;99.90;;;;;;5041663;28;20045;-83
2023/06/23 00:16:13;;;;;;;19.90;14.73;;;16.70;99.90;;;;;;5036722;28;20053;-83
2023/06/23 00:18:48;;;;;;;26.88;15.55;;;16.80;99.90;;;;;;5037481;28;20166;-84
2023/06/23 00:21:16;;;;;;;23.85;15.40;;;16.70;99.90;;;;;;5043308;28;20149;-84
2023/06/23 00:23:47;;;;;;;20.20;15.13;;;16.70;99.90;;;;;;5019019;28;20461;-83
2023/06/23 00:26:13;;;;;;;18.20;15.25;;;16.70;99.90;;;;;;5027768;28;20059;-83
2023/06/23 00:28:47;;;;;;;20.85;15.00;;;16.70;99.90;;;;;;5037243;28;20044;-82
2023/06/23 00:31:13;;;;;;;27.25;15.00;;;16.70;99.90;;;;;;5036043;28;20053;-83
2023/06/23 00:33:39;;;;;;;24.10;14.82;;;16.70;99.90;;;;;;5037423;28;20549;-83
2023/06/23 00:36:04;;;;;;;19.38;14.45;;;16.70;99.90;;;;;;5030203;28;20091;-83
2023/06/23 00:38:38;;;;;;;20.83;15.40;;;16.70;99.90;;;;;;5037883;28;20048;-83
2023/06/23 00:41:24;;;;;;;25.60;15.73;;;16.70;99.90;;;;;;5020814;28;20045;-82
2023/06/23 00:43:50;;;;;;;25.33;16.15;;;16.70;99.90;;;;;;5027725;28;20072;-82
2023/06/23 00:46:27;;;;;;;25.83;16.33;;;16.70;99.90;;;;;;5040318;28;20407;-84
2023/06/23 00:49:23;;;;;;;24.00;17.73;;;16.70;99.90;;;;;;5054331;28;20056;-82
2023/06/23 00:51:49;;;;;;;27.13;17.63;;;16.70;99.90;;;;;;5035275;28;20037;-81
2023/06/23 00:54:16;;;;;;;33.08;17.42;;;16.60;99.90;;;;;;5039148;28;20045;-82
2023/06/23 00:56:42;;;;;;;26.00;17.33;;;16.60;99.90;;;;;;5039016;28;20686;-82
2023/06/23 00:59:19;;;;;;;32.65;17.48;;;16.60;99.90;;;;;;5020678;28;20108;-82
2023/06/23 01:01:45;;;;;;;26.80;17.75;;;16.60;99.90;;;;;;5030729;28;20075;-83
2023/06/23 01:04:24;;;;;;;30.45;17.48;;;16.60;99.90;;;;;;5054918;28;20053;-83
2023/06/23 01:07:21;;;;;;;25.38;17.70;;;16.60;99.90;;;;;;5029667;28;20621;-82
2023/06/23 01:10:11;;;;;;;27.77;18.40;;;16.60;99.90;;;;;;5028497;28;20052;-84
2023/06/23 01:13:01;;;;;;;39.25;18.23;;;16.60;99.90;;;;;;5036674;28;20048;-83
2023/06/23 01:15:34;;;;;;;26.23;18.73;;;16.60;99.90;;;;;;5023138;28;20059;-84
2023/06/23 01:18:18;;;;;;;26.90;18.02;;;16.60;99.90;;;;;;5042741;28;20068;-84
2023/06/23 01:20:49;;;;;;;26.38;16.70;;;16.60;99.90;;;;;;5034566;28;20057;-82
2023/06/23 01:23:24;;;;;;;27.35;16.92;;;16.60;99.90;;;;;;5017820;28;20102;-81
2023/06/23 01:26:35;;;;;;;20.50;15.32;;;16.50;99.90;;;;;;5030626;28;20438;-81
2023/06/23 01:29:28;;;;;;;21.58;14.15;;;16.60;99.90;;;;;;4935595;28;20780;-82
2023/06/23 01:32:10;;;;;;;22.33;12.98;;;16.50;99.90;;;;;;5011090;28;20049;-82
2023/06/23 01:34:46;;;;;;;17.73;12.53;;;16.50;99.90;;;;;;5025643;28;20049;-82
2023/06/23 01:37:18;;;;;;;16.65;10.95;;;16.40;99.90;;;;;;5035951;28;20078;-81
2023/06/23 01:39:56;;;;;;;21.73;12.20;;;16.40;99.90;;;;;;5029594;28;20056;-82
2023/06/23 01:42:39;;;;;;;19.05;11.38;;;16.40;99.90;;;;;;5028469;28;20500;-81
2023/06/23 01:45:15;;;;;;;17.85;11.52;;;16.40;99.90;;;;;;5025345;28;20051;-82
2023/06/23 01:48:02;;;;;;;18.95;11.32;;;16.40;99.90;;;;;;5039406;28;20048;-80
2023/06/23 01:50:32;;;;;;;22.55;12.70;;;16.40;99.90;;;;;;5026770;28;20572;-82
2023/06/23 01:53:19;;;;;;;22.20;12.00;;;16.40;99.90;;;;;;5029240;28;20111;-83
2023/06/23 01:55:47;;;;;;;21.20;13.50;;;16.40;99.90;;;;;;5028900;28;20055;-83
2023/06/23 01:58:22;;;;;;;24.33;15.00;;;16.30;99.90;;;;;;5031892;28;20593;-81
2023/06/23 02:01:01;;;;;;;18.35;13.82;;;16.30;99.90;;;;;;5011306;28;20082;-81
2023/06/23 02:03:30;;;;;;;23.92;14.65;;;16.30;99.90;;;;;;5030795;28;20045;-82
2023/06/23 02:06:02;;;;;;;22.25;15.65;;;16.30;99.90;;;;;;5012970;28;20061;-80
2023/06/23 02:08:30;;;;;;;;;;;16.20;99.90;;;;;;5031174;28;20059;-81
2023/06/23 02:11:01;;;;;;;26.85;14.90;;;16.20;99.90;;;;;;5017534;28;19947;-81
2023/06/23 02:13:31;;;;;;;26.52;14.77;;;16.20;99.90;;;;;;5017598;28;20051;-87
2023/06/23 02:15:59;;;;;;;20.17;14.25;;;16.20;99.90;;;;;;5021762;28;20049;-82
2023/06/23 02:18:27;;;;;;;20.58;14.32;;;16.20;99.90;;;;;;5026391;28;20049;-81
2023/06/23 02:20:57;;;;;;;22.25;14.75;;;16.20;99.90;;;;;;5027300;28;20095;-83
2023/06/23 02:23:28;;;;;;;19.15;14.52;;;16.20;99.90;;;;;;5018328;28;20056;-79
2023/06/23 02:25:57;;;;;;;21.13;12.80;;;16.00;99.90;;;;;;5035718;28;20100;-81
2023/06/23 02:28:24;;;;;;;20.50;12.88;;;16.20;99.90;;;;;;5031104;28;20546;-82
2023/06/23 02:30:51;;;;;;;23.75;13.55;;;16.20;99.90;;;;;;5020977;28;20152;-83
2023/06/23 02:33:19;;;;;;;18.80;12.32;;;16.20;99.90;;;;;;5029326;28;20084;-84
2023/06/23 02:35:46;;;;;;;20.58;12.48;;;16.20;99.90;;;;;;5030865;28;20132;-82
2023/06/23 02:38:15;;;;;;;29.05;12.60;;;16.20;99.90;;;;;;5036782;28;20056;-82
2023/06/23 02:40:44;;;;;;;23.05;12.38;;;16.10;99.90;;;;;;5032273;28;20094;-78
2023/06/23 02:43:26;;;;;;;20.30;12.40;;;16.10;99.90;;;;;;5028461;28;20147;-79
2023/06/23 02:46:01;;;;;;;23.23;11.95;;;16.10;99.90;;;;;;5027777;28;20088;-83
2023/06/23 02:48:35;;;;;;;16.52;10.75;;;16.10;99.90;;;;;;5033061;28;20259;-80
2023/06/23 02:51:07;;;;;;;17.45;11.50;;;16.10;99.90;;;;;;5033056;28;20052;-80
2023/06/23 02:53:41;;;;;;;14.82;9.93;;;16.10;99.90;;;;;;5017097;28;20049;-82
2023/06/23 02:56:15;;;;;;;17.67;10.27;;;16.10;99.90;;;;;;5029628;28;20120;-81
2023/06/23 02:58:42;;;;;;;16.17;10.45;;;17.80;99.90;;;;;;5024393;28;20156;-81
2023/06/23 03:01:14;;;;;;;17.30;10.52;;;16.10;99.90;;;;;;5027676;28;20044;-80
2023/06/23 03:03:44;;;;;;;18.92;9.88;;;16.00;99.90;;;;;;5035831;28;20060;-82
2023/06/23 03:06:18;;;;;;;18.58;10.00;;;16.00;99.90;;;;;;5011695;28;20409;-81
2023/06/23 03:08:47;;;;;;;15.40;9.50;;;16.00;99.90;;;;;;5017830;28;20177;-81
2023/06/23 03:11:21;;;;;;;18.50;9.75;;;14.20;99.90;;;;;;5011032;28;20502;-82
2023/06/23 03:13:48;;;;;;;14.82;9.13;;;16.00;99.90;;;;;;5013842;28;20071;-81
2023/06/23 03:16:38;;;;;;;20.77;9.50;;;16.00;99.90;;;;;;5026609;28;20041;-81
2023/06/23 03:19:26;;;;;;;14.52;9.13;;;16.00;99.90;;;;;;5005712;28;20052;-81
2023/06/23 03:22:19;;;;;;;15.07;8.48;;;16.00;99.90;;;;;;5009802;28;20107;-81
2023/06/23 03:24:52;;;;;;;19.95;10.55;;;15.90;99.90;;;;;;5024941;28;20944;-81
2023/06/23 03:27:23;;;;;;;25.55;9.52;;;15.90;99.90;;;;;;5019782;28;20882;-81
2023/06/23 03:30:16;;;;;;;14.38;9.05;;;15.90;99.90;;;;;;5007748;28;20052;-80
2023/06/23 03:32:49;;;;;;;17.33;8.73;;;15.90;99.90;;;;;;4999834;28;20064;-80
2023/06/23 03:35:24;;;;;;;14.57;8.63;;;15.80;99.90;;;;;;5013311;28;20045;-81
2023/06/23 03:37:56;;;;;;;16.08;7.93;;;15.80;99.90;;;;;;5014651;28;20060;-81
2023/06/23 03:40:26;;;;;;;12.25;7.68;;;13.30;99.90;;;;;;5012340;28;20063;-81
2023/06/23 03:43:15;;;;;;;20.40;9.20;;;15.70;99.90;;;;;;5024939;28;20084;-81
2023/06/23 03:45:44;;;;;;;19.80;7.70;;;15.70;99.90;;;;;;5009870;28;20049;-81
2023/06/23 03:48:20;;;;;;;16.85;8.02;;;15.70;99.90;;;;;;5015382;28;20052;-81
2023/06/23 03:50:56;;;;;;;23.15;9.15;;;15.70;99.90;;;;;;5011131;28;20055;-81
2023/06/23 03:53:24;;;;;;;13.02;8.73;;;15.70;99.90;;;;;;5009760;28;20057;-81
2023/06/23 03:55:52;;;;;;;17.17;8.70;;;15.60;99.90;;;;;;5014395;28;20052;-81
2023/06/23 03:58:20;;;;;;;17.33;8.55;;;15.60;99.90;;;;;;5028227;28;20049;-80
2023/06/23 04:00:50;;;;;;;16.58;8.35;;;15.70;99.90;;;;;;5019805;28;20126;-82
2023/06/23 04:03:19;;;;;;;11.43;7.93;;;15.70;99.90;;;;;;5009129;28;20075;-81
2023/06/23 04:05:47;;;;;;;18.92;8.98;;;15.70;99.90;;;;;;5037907;28;20063;-81
2023/06/23 04:08:14;;;;;;;28.67;10.02;;;15.80;99.90;;;;;;5042676;28;20056;-81
2023/06/23 04:10:41;;;;;;;20.27;9.02;;;15.80;99.90;;;;;;5042704;28;20060;-80
2023/06/23 04:13:07;;;;;;;16.83;8.98;;;15.80;99.90;;;;;;5042786;28;20047;-80
2023/06/23 04:15:37;;;;;;;17.08;7.97;;;15.90;99.90;;;;;;5042856;28;20136;-80
2023/06/23 04:18:06;;;;;;;17.83;8.38;;;14.80;99.90;;;;;;5043322;28;20048;-80
2023/06/23 04:20:33;;;;;;;20.80;10.45;;;16.00;99.90;;;;;;5041774;28;20087;-79
2023/06/23 04:23:04;;;;;;;18.08;8.77;;;16.10;99.90;;;;;;5024547;28;20045;-80
2023/06/23 04:25:34;;;;;;;26.83;9.63;;;16.20;99.90;;;;;;5026507;28;20088;-80
2023/06/23 04:28:06;;;;;;;15.18;8.98;;;16.20;99.90;;;;;;5043209;28;20045;-80
2023/06/23 04:30:36;;;;;;;14.20;7.97;;;16.30;99.90;;;;;;5026672;28;20045;-81
2023/06/23 04:33:04;;;;;;;25.15;8.40;;;16.30;99.90;;;;;;5030015;28;20103;-80
2023/06/23 04:35:30;;;;;;;14.05;8.77;;;16.30;99.90;;;;;;5046551;28;20110;-81
2023/06/23 04:38:10;;;;;;;17.52;8.52;;;16.30;99.90;;;;;;5045870;28;20056;-81
2023/06/23 04:40:51;;;;;;;17.65;7.25;;;16.30;99.90;;;;;;5046534;28;20182;-81
2023/06/23 04:43:26;;;;;;;19.73;9.00;;;16.40;99.90;;;;;;5046244;28;20056;-81
2023/06/23 04:46:14;;;;;;;14.15;7.20;;;16.40;99.90;;;;;;5030604;28;20416;-79
2023/06/23 04:48:49;;;;;;;14.07;7.88;;;16.40;99.90;;;;;;5043996;28;20052;-80
2023/06/23 04:51:19;;;;;;;14.20;9.10;;;16.40;99.90;;;;;;5044077;28;20080;-79
2023/06/23 04:53:53;;;;;;;11.90;7.95;;;16.50;99.90;;;;;;5043462;28;20533;-80
2023/06/23 04:56:23;;;;;;;10.95;7.32;;;16.60;99.90;;;;;;5044159;28;20139;-80
2023/06/23 04:58:53;;;;;;;12.27;8.02;;;16.60;99.90;;;;;;5026694;28;20059;-80
2023/06/23 05:01:20;;;;;;;15.73;8.02;;;16.70;99.90;;;;;;5043822;28;20323;-80
2023/06/23 05:03:48;;;;;;;13.35;8.52;;;16.80;99.90;;;;;;5043252;28;20060;-81
2023/06/23 05:06:18;;;;;;;17.88;8.95;;;16.90;99.90;;;;;;5036786;28;20130;-81
2023/06/23 05:08:49;;;;;;;13.65;8.13;;;16.90;99.90;;;;;;5028562;28;20055;-81
2023/06/23 05:11:17;;;;;;;17.38;8.32;;;17.00;99.90;;;;;;5035421;28;20053;-81
2023/06/23 05:13:44;;;;;;;10.50;7.18;;;17.10;99.90;;;;;;5038795;28;20441;-81
2023/06/23 05:16:13;;;;;;;12.00;8.57;;;17.10;99.90;;;;;;5036630;28;20057;-81
2023/06/23 05:18:44;;;;;;;16.45;8.70;;;17.10;99.90;;;;;;5037087;28;20078;-81
2023/06/23 05:21:14;;;;;;;15.13;7.95;;;17.20;99.90;;;;;;5011728;28;20289;-81
2023/06/23 05:23:44;;;;;;;16.35;9.07;;;17.30;99.90;;;;;;5011272;28;20045;-81
2023/06/23 05:26:14;;;;;;;15.57;7.93;;;17.40;99.90;;;;;;5022839;28;20056;-81
2023/06/23 05:28:43;;;;;;;14.23;8.45;;;17.50;99.90;;;;;;5014321;28;20044;-81
2023/06/23 05:31:15;;;;;;;13.07;8.00;;;17.60;99.90;;;;;;5026681;28;20080;-82
2023/06/23 05:33:47;;;;;;;9.70;6.88;;;17.70;99.90;;;;;;5039073;28;20040;-81
2023/06/23 05:36:16;;;;;;;12.35;8.00;;;17.70;99.90;;;;;;5018199;28;20052;-82
2023/06/23 05:38:46;;;;;;;12.85;7.85;;;17.70;99.90;;;;;;5010592;28;20556;-82
2023/06/23 05:41:16;;;;;;;12.25;7.70;;;17.10;99.90;;;;;;5013754;28;20056;-81
2023/06/23 05:44:10;;;;;;;13.15;7.57;;;17.80;99.90;;;;;;5011058;28;20060;-81
2023/06/23 05:47:04;;;;;;;13.48;8.02;;;17.80;99.90;;;;;;5026814;28;20074;-84
2023/06/23 05:50:21;;;;;;;12.88;7.78;;;17.90;99.90;;;;;;5001983;28;20378;-82
2023/06/23 05:53:14;;;;;;;11.30;7.15;;;18.00;99.90;;;;;;5024931;28;20055;-83
2023/06/23 05:55:59;;;;;;;12.27;7.35;;;18.00;99.90;;;;;;5006683;28;20071;-81
2023/06/23 05:58:33;;;;;;;11.07;7.80;;;18.00;99.90;;;;;;5025371;28;20060;-83
2023/06/23 06:01:10;;;;;;;12.95;7.50;;;18.10;99.90;;;;;;5024103;28;20516;-83
2023/06/23 06:03:58;;;;;;;11.52;8.05;;;18.20;99.90;;;;;;5037649;28;20056;-84
2023/06/23 06:06:39;;;;;;;11.93;7.13;;;18.20;99.90;;;;;;5034504;28;20747;-80
2023/06/23 06:09:26;;;;;;;8.82;6.55;;;18.30;99.90;;;;;;5028290;28;20045;-80
2023/06/23 06:12:06;;;;;;;13.30;7.93;;;18.40;99.90;;;;;;5036727;28;20049;-80
2023/06/23 06:14:42;;;;;;;10.35;6.60;;;18.40;99.90;;;;;;5011026;28;20389;-79
2023/06/23 06:17:14;;;;;;;12.02;7.25;;;18.60;99.90;;;;;;5009284;28;20433;-79
2023/06/23 06:19:41;;;;;;;11.45;7.57;;;18.80;99.90;;;;;;5023885;28;20529;-78
2023/06/23 06:22:10;;;;;;;9.30;6.80;;;19.20;99.90;;;;;;5008973;28;20052;-78
2023/06/23 06:24:37;;;;;;;9.63;6.07;;;20.20;99.90;;;;;;5023413;28;20052;-80
2023/06/23 06:27:06;;;;;;;10.45;6.38;;;21.20;99.90;;;;;;5006714;28;20045;-82
2023/06/23 06:29:35;;;;;;;8.07;5.70;;;22.70;99.90;;;;;;5017091;28;20513;-81
2023/06/23 06:32:04;;;;;;;6.50;5.30;;;24.40;99.90;;;;;;5023517;28;20065;-78
2023/06/23 06:34:31;;;;;;;7.53;4.97;;;25.90;99.50;;;;;;5022506;28;20502;-79
2023/06/23 06:37:01;;;;;;;8.15;6.05;;;27.10;96.90;;;;;;5022780;28;20573;-78
2023/06/23 06:39:29;;;;;;;7.35;4.15;;;27.60;95.00;;;;;;5023056;28;20812;-78
2023/06/23 06:42:03;;;;;;;7.85;3.92;;;28.30;93.10;;;;;;5028445;28;20474;-78
2023/06/23 06:44:30;;;;;;;7.82;4.07;;;29.10;91.80;;;;;;5023731;28;20482;-79
2023/06/23 06:47:01;;;;;;;6.10;3.95;;;28.50;91.20;;;;;;5021518;28;20950;-79
2023/06/23 06:49:31;;;;;;;6.75;3.92;;;28.50;90.30;;;;;;5022742;28;20755;-78
2023/06/23 06:51:59;;;;;;;10.73;4.60;;;29.20;89.90;;;;;;5021835;28;20080;-78
2023/06/23 06:54:33;;;;;;;7.15;3.47;;;29.30;88.80;;;;;;5005850;28;20049;-78
2023/06/23 06:57:19;;;;;;;6.25;3.67;;;29.50;85.80;;;;;;5021557;28;20797;-75
2023/06/23 06:59:45;;;;;;;8.80;3.97;;;30.10;84.70;;;;;;5033047;28;20565;-78
2023/06/23 07:02:13;;;;;;;6.57;3.85;;;30.00;84.00;;;;;;5023357;28;20057;-78
2023/06/23 07:04:40;;;;;;;9.32;4.80;;;29.50;82.90;;;;;;5019670;28;20058;-79
2023/06/23 07:07:05;;;;;;;6.75;3.38;;;29.40;82.00;;;;;;5021440;28;20083;-81
2023/06/23 07:09:31;;;;;;;7.85;3.38;;;30.10;81.40;;;;;;5019640;28;20078;-78
2023/06/23 07:11:58;;;;;;;5.43;2.88;;;31.60;78.80;;;;;;5020428;28;20059;-77
2023/06/23 07:14:24;;;;;;;8.60;3.92;;;32.30;76.90;;;;;;5019221;28;20061;-80
2023/06/23 07:16:50;;;;;;;6.40;3.05;;;32.40;74.40;;;;;;5017630;28;20060;-79
2023/06/23 07:19:16;;;;;;;4.80;3.22;;;33.20;73.70;;;;;;5020384;28;20057;-79
2023/06/23 07:21:45;;;;;;;5.38;2.92;;;33.90;71.30;;;;;;5019898;28;20045;-81
2023/06/23 07:24:16;;;;;;;8.45;2.95;;;34.60;69.80;;;;;;5020748;28;20052;-83
2023/06/23 07:26:42;;;;;;;4.78;3.33;;;35.40;66.60;;;;;;5021458;28;20049;-82
2023/06/23 07:29:27;;;;;;;7.07;3.35;;;35.10;66.30;;;;;;5020834;28;20094;-79
2023/06/23 07:31:56;;;;;;;6.70;2.92;;;35.00;66.10;;;;;;5022939;28;20084;-77
2023/06/23 07:34:34;;;;;;;4.80;2.92;;;35.00;65.00;;;;;;5026780;28;20471;-75
2023/06/23 07:37:29;;;;;;;5.72;2.78;;;35.80;64.90;;;;;;5023047;28;20898;-75
2023/06/23 07:39:58;;;;;;;5.30;3.10;;;36.70;63.20;;;;;;5023988;28;20044;-73
2023/06/23 07:42:32;;;;;;;5.50;2.50;;;37.60;61.80;;;;;;5024061;28;20049;-75
2023/06/23 07:45:03;;;;;;;8.88;3.17;;;38.40;60.20;;;;;;5021848;28;20543;-76
2023/06/23 07:47:34;;;;;;;;;;;38.90;57.80;;;;;;5023641;28;20048;-76
2023/06/23 07:50:00;;;;;;;3.90;2.58;;;39.50;59.20;;;;;;5022392;28;19932;-76
2023/06/23 07:52:25;;;;;;;5.65;3.25;;;39.90;56.60;;;;;;5026703;28;20041;-74
2023/06/23 07:54:52;;;;;;;5.18;2.60;;;40.30;54.70;;;;;;5026514;28;20056;-76
2023/06/23 07:57:37;;;;;;;6.00;2.88;;;40.70;54.60;;;;;;5022283;28;20071;-76
2023/06/23 08:00:07;;;;;;;5.22;2.65;;;41.10;53.70;;;;;;5035831;28;20848;-80
2023/06/23 08:02:33;;;;;;;4.70;2.58;;;41.20;52.30;;;;;;5023285;28;20048;-77
2023/06/23 08:05:08;;;;;;;5.03;2.70;;;41.30;51.80;;;;;;5032403;28;20191;-75
2023/06/23 08:08:07;;;;;;;4.47;2.60;;;41.50;52.20;;;;;;5025019;28;20053;-76
2023/06/23 08:10:35;;;;;;;4.47;2.28;;;41.70;50.60;;;;;;5037554;28;20057;-77
2023/06/23 08:13:05;;;;;;;4.07;1.92;;;42.10;50.40;;;;;;5022979;28;20049;-78
2023/06/23 08:15:40;;;;;;;2.90;2.17;;;42.20;50.20;;;;;;5023826;28;20076;-81
2023/06/23 08:18:19;;;;;;;3.72;2.47;;;42.20;49.40;;;;;;5019406;28;20089;-79
2023/06/23 08:20:56;;;;;;;5.78;2.35;;;42.40;48.90;;;;;;5023876;28;20049;-79
2023/06/23 08:23:25;;;;;;;5.60;2.40;;;42.60;47.60;;;;;;5035485;28;20068;-78
2023/06/23 08:25:51;;;;;;;3.13;2.00;;;42.60;47.80;;;;;;5040205;28;20056;-80
2023/06/23 08:28:28;;;;;;;4.57;2.25;;;42.90;47.90;;;;;;5040398;28;20095;-80
2023/06/23 08:31:01;;;;;;;4.82;2.03;;;43.00;46.60;;;;;;5023972;28;20375;-80
2023/06/23 08:33:45;;;;;;;5.18;1.95;;;43.40;45.50;;;;;;5039457;28;20041;-80
2023/06/23 08:36:55;;;;;;;2.35;1.67;;;43.50;45.20;;;;;;5023421;28;20138;-81
2023/06/23 08:39:25;;;;;;;5.10;2.08;;;43.60;47.80;;;;;;5023762;28;20087;-81
2023/06/23 08:42:13;;;;;;;3.03;1.80;;;43.80;44.70;;;;;;5024076;28;20048;-80
2023/06/23 08:44:48;;;;;;;3.55;1.92;;;43.30;45.00;;;;;;5025557;28;20041;-80
2023/06/23 08:47:23;;;;;;;3.95;2.10;;;43.00;45.90;;;;;;5022227;28;20164;-81
2023/06/23 08:49:52;;;;;;;6.10;2.05;;;43.10;45.30;;;;;;5021789;28;20125;-80
2023/06/23 08:52:21;;;;;;;4.90;2.10;;;43.30;44.50;;;;;;5040016;28;20048;-80
2023/06/23 08:54:50;;;;;;;4.18;1.80;;;43.60;43.30;;;;;;5023482;28;20060;-79
2023/06/23 08:57:20;;;;;;;2.70;1.65;;;43.80;42.60;;;;;;5022865;28;20116;-80
2023/06/23 08:59:53;;;;;;;2.20;1.33;;;43.90;43.70;;;;;;5022817;28;20049;-80
2023/06/23 09:02:56;;;;;;;5.85;1.75;;;43.80;43.80;;;;;;5021918;28;20131;-79
2023/06/23 09:05:46;;;;;;;4.10;1.48;;;43.80;43.60;;;;;;5005625;28;20061;-79
2023/06/23 09:11:09;;;;;;;2.92;1.40;;;43.10;43.10;;;;;;5018284;28;20057;-77
2023/06/23 09:13:52;;;;;;;3.08;1.40;;;43.20;42.70;;;;;;5008113;28;20051;-78
2023/06/23 09:16:28;;;;;;;4.22;1.45;;;43.40;42.90;;;;;;5006396;28;20063;-77
2023/06/23 09:19:07;;;;;;;3.90;1.67;;;43.40;43.80;;;;;;5022231;28;20119;-77
2023/06/23 09:21:42;;;;;;;2.50;1.42;;;43.50;42.40;;;;;;5005594;28;20045;-76
2023/06/23 09:24:23;;;;;;;4.15;1.40;;;43.60;42.00;;;;;;5031780;28;20088;-77
2023/06/23 09:26:57;;;;;;;3.80;1.48;;;43.60;40.50;;;;;;5023236;28;20122;-78
2023/06/23 09:29:32;;;;;;;1.73;1.10;;;43.60;39.80;;;;;;5011159;28;20057;-77
2023/06/23 09:32:09;;;;;;;3.42;1.42;;;43.50;41.80;;;;;;5007629;28;20128;-76
2023/06/23 09:35:09;;;;;;;3.80;1.55;;;43.60;41.10;;;;;;5005548;28;20063;-75
2023/06/23 09:37:47;;;;;;;2.83;1.65;;;43.80;41.60;;;;;;5011358;28;20040;-77
2023/06/23 09:40:27;;;;;;;2.65;1.50;;;43.70;41.70;;;;;;5027442;28;20131;-77
2023/06/23 09:43:05;;;;;;;2.10;1.35;;;43.50;41.10;;;;;;5012439;28;20049;-77
2023/06/23 09:45:47;;;;;;;3.65;1.58;;;43.50;41.70;;;;;;5009662;28;20068;-76
2023/06/23 09:48:23;;;;;;;3.50;1.50;;;43.50;41.00;;;;;;5023748;28;20402;-78
2023/06/23 09:51:02;;;;;;;5.55;1.67;;;43.60;42.20;;;;;;5016431;28;20532;-77
2023/06/23 09:54:01;;;;;;;2.75;1.60;;;43.60;42.00;;;;;;5014084;28;20123;-76
2023/06/23 09:56:45;;;;;;;3.25;1.13;;;43.20;40.80;;;;;;5006264;28;20403;-78
2023/06/23 09:59:25;;;;;;;1.98;0.98;;;43.00;41.60;;;;;;5011479;28;20059;-75
2023/06/23 10:01:54;;;;;;;3.67;1.38;;;42.90;41.40;;;;;;5006460;28;20049;-77
2023/06/23 10:04:29;;;;;;;4.03;1.40;;;42.90;40.10;;;;;;5028433;28;20105;-74
2023/06/23 10:07:37;;;;;;;4.47;1.15;;;42.70;40.70;;;;;;5025863;28;20052;-75
2023/06/23 10:10:10;;;;;;;4.63;1.23;;;42.40;42.40;;;;;;5009417;28;20480;-74
2023/06/23 10:12:40;;;;;;;4.22;1.20;;;42.20;41.40;;;;;;5039577;28;20044;-78
2023/06/23 10:15:11;;;;;;;3.78;1.45;;;42.10;41.90;;;;;;5024270;28;20044;-73
2023/06/23 10:17:41;;;;;;;3.72;1.20;;;42.00;41.40;;;;;;5023922;28;20110;-76
2023/06/23 10:20:22;;;;;;;3.93;2.07;;;42.00;41.60;;;;;;5024344;28;20130;-72
2023/06/23 10:22:51;;;;;;;2.58;1.65;;;41.90;41.60;;;;;;5017580;28;20102;-75
2023/06/23 10:25:20;;;;;;;3.70;1.77;;;40.50;41.20;;;;;;5038423;28;20048;-75
2023/06/23 10:27:55;;;;;;;4.47;1.90;;;41.90;42.40;;;;;;5041800;28;20068;-72
2023/06/23 10:30:44;;;;;;;2.95;2.10;;;41.70;42.50;;;;;;5024800;28;20932;-72
2023/06/23 10:33:20;;;;;;;5.40;2.20;;;41.60;43.50;;;;;;5022428;28;20048;-76
2023/06/23 10:35:53;;;;;;;4.15;2.08;;;41.40;42.30;;;;;;5040613;28;20097;-75
2023/06/23 10:38:40;;;;;;;3.42;2.55;;;41.00;42.90;;;;;;5023958;28;20218;-74
2023/06/23 10:41:09;;;;;;;4.70;1.98;;;40.50;42.50;;;;;;5040966;28;20094;-74
2023/06/23 10:43:40;;;;;;;4.15;2.28;;;39.80;43.10;;;;;;5041212;28;20125;-72
2023/06/23 10:46:11;;;;;;;6.97;2.58;;;39.30;44.20;;;;;;5024130;28;20059;-73
2023/06/23 10:48:52;;;;;;;3.20;2.30;;;38.80;44.30;;;;;;5025086;28;20052;-77
2023/06/23 10:51:24;;;;;;;2.92;2.47;;;38.20;44.30;;;;;;5023338;28;20060;-75
2023/06/23 10:53:59;;;;;;;4.25;2.58;;;37.20;45.60;;;;;;5024017;28;20177;-73
2023/06/23 10:57:00;;;;;;;3.17;2.47;;;36.10;46.50;;;;;;5021642;28;20044;-75
2023/06/23 11:00:05;;;;;;;2.97;2.60;;;35.10;48.30;;;;;;5040925;28;20186;-73
2023/06/23 11:03:24;;;;;;;4.50;2.88;;;34.10;49.40;;;;;;5023644;28;20062;-75
2023/06/23 11:10:34;;;;;;;3.90;2.70;;;32.70;51.00;;;;;;4944324;28;20508;-75
2023/06/23 11:13:35;;;;;;;3.63;2.85;;;31.90;51.80;;;;;;4936899;28;20146;-75
2023/06/23 11:16:14;;;;;;;6.15;3.60;;;31.30;53.30;;;;;;4985858;28;20057;-78
2023/06/23 11:18:48;;;;;;;3.65;2.08;;;31.00;54.70;;;;;;5025373;28;20139;-78
2023/06/23 11:21:25;;;;;;;3.50;2.55;;;30.70;56.00;;;;;;5008747;28;20056;-76
2023/06/23 11:24:39;;;;;;;3.13;2.00;;;30.40;56.10;;;;;;5024080;28;20060;-74
2023/06/23 11:27:18;;;;;;;4.05;2.30;;;30.10;56.10;;;;;;5006678;28;20049;-75
2023/06/23 11:30:35;;;;;;;4.28;2.38;;;29.90;56.90;;;;;;5019584;28;20044;-75
2023/06/23 11:33:27;;;;;;;4.60;2.38;;;29.80;57.40;;;;;;5011932;28;20064;-71
2023/06/23 11:35:56;;;;;;;5.32;2.00;;;29.60;58.10;;;;;;5000467;28;20048;-75
2023/06/23 11:38:24;;;;;;;3.55;2.33;;;29.60;57.90;;;;;;5023721;28;20049;-75
2023/06/23 11:40:53;;;;;;;3.88;3.00;;;29.60;58.40;;;;;;5006670;28;20551;-72
2023/06/23 11:43:20;;;;;;;5.65;2.85;;;29.50;58.40;;;;;;5008009;28;20044;-80
2023/06/23 11:45:56;;;;;;;4.78;2.50;;;29.30;58.70;;;;;;5007212;28;20049;-76
2023/06/23 11:48:28;;;;;;;5.13;2.65;;;29.20;58.80;;;;;;5024451;28;20053;-72
2023/06/23 11:50:56;;;;;;;8.07;3.13;;;28.90;58.80;;;;;;5022748;28;20769;-72
2023/06/23 11:53:23;;;;;;;6.40;2.50;;;28.80;59.80;;;;;;5006798;28;20044;-72
2023/06/23 11:55:51;;;;;;;4.75;2.72;;;28.80;60.80;;;;;;5006766;28;20056;-76
2023/06/23 11:58:18;;;;;;;6.22;2.53;;;28.70;60.70;;;;;;5023734;28;20676;-71
2023/06/23 12:00:47;;;;;;;2.92;1.80;;;28.70;60.70;;;;;;5004452;28;20045;-72
2023/06/23 12:03:15;;;;;;;4.07;2.17;;;28.70;59.70;;;;;;5007067;28;20498;-73
2023/06/23 12:05:46;;;;;;;4.93;1.92;;;28.60;59.70;;;;;;5015701;28;20507;-71
2023/06/23 12:08:17;;;;;;;5.88;2.58;;;28.50;60.50;;;;;;5019998;28;20502;-73
2023/06/23 12:10:47;;;;;;;4.10;1.77;;;28.30;60.00;;;;;;4999698;28;20952;-79
2023/06/23 12:13:16;;;;;;;4.93;2.33;;;28.20;60.30;;;;;;5012908;28;20055;-75
2023/06/23 12:15:44;;;;;;;5.32;2.22;;;28.10;61.60;;;;;;5015518;28;20040;-74
2023/06/23 12:18:12;;;;;;;3.00;2.10;;;27.90;61.30;;;;;;5004791;28;20056;-81
2023/06/23 12:20:45;;;;;;;3.83;1.85;;;27.70;61.10;;;;;;4991414;28;20054;-77
2023/06/23 12:23:14;;;;;;;3.83;2.10;;;27.50;62.20;;;;;;4991723;28;20099;-75
2023/06/23 12:25:52;;;;;;;9.00;2.55;;;27.30;62.50;;;;;;5007118;28;20056;-77
2023/06/23 12:28:25;;;;;;;5.82;1.90;;;27.20;62.90;;;;;;4987561;28;20146;-80
2023/06/23 12:30:52;;;;;;;;;;;27.10;61.90;;;;;;5009846;28;20057;-81
2023/06/23 12:33:29;;;;;;;6.15;2.38;;;27.00;63.90;;;;;;4999700;28;19936;-73
2023/06/23 12:36:11;;;;;;;19.27;8.32;;;26.90;63.50;;;;;;4988821;28;20057;-75
2023/06/23 12:38:37;;;;;;;16.80;7.90;;;26.90;63.60;;;;;;4991332;28;20142;-77
2023/06/23 12:41:15;;;;;;;26.50;11.82;;;25.90;62.80;;;;;;5005006;28;20060;-76
2023/06/23 12:43:43;;;;;;;17.85;7.63;;;26.80;63.70;;;;;;4985314;28;20083;-77
2023/06/23 12:46:15;;;;;;;15.00;6.07;;;26.70;63.60;;;;;;4984869;28;20055;-75
2023/06/23 12:48:43;;;;;;;10.13;5.00;;;26.70;63.60;;;;;;4982383;28;20466;-75
2023/06/23 12:51:12;;;;;;;9.23;3.38;;;26.70;63.70;;;;;;4979857;28;20057;-78
2023/06/23 12:53:43;;;;;;;9.65;4.55;;;26.60;62.80;;;;;;4999926;28;20057;-73
2023/06/23 12:56:09;;;;;;;12.13;4.38;;;26.60;63.60;;;;;;4982944;28;20045;-80
2023/06/23 12:58:38;;;;;;;10.02;4.43;;;26.50;64.90;;;;;;4995090;28;20049;-80
2023/06/23 13:01:05;;;;;;;7.18;4.50;;;26.40;64.60;;;;;;4975505;28;20057;-76
2023/06/23 13:03:32;;;;;;;6.60;3.70;;;26.30;65.40;;;;;;4959433;28;20062;-82
2023/06/23 13:05:59;;;;;;;11.93;4.45;;;25.60;64.00;;;;;;4991435;28;20346;-74
2023/06/23 13:08:27;;;;;;;6.30;3.58;;;26.30;65.30;;;;;;4976103;28;20053;-77
2023/06/23 13:10:54;;;;;;;8.57;3.28;;;26.30;65.00;;;;;;4997883;28;22214;-76
2023/06/23 13:13:20;;;;;;;11.18;3.22;;;26.20;64.40;;;;;;4976503;28;20079;-78
2023/06/23 13:15:48;;;;;;;5.75;2.45;;;26.10;63.00;;;;;;4990234;28;20509;-80
2023/06/23 13:18:15;;;;;;;6.13;2.33;;;26.10;62.50;;;;;;4995028;28;21130;-79
2023/06/23 13:20:42;;;;;;;4.57;2.33;;;26.00;62.10;;;;;;4986642;28;20460;-77
2023/06/23 13:23:10;;;;;;;5.28;2.50;;;26.00;62.10;;;;;;4976102;28;20158;-85
2023/06/23 13:25:37;;;;;;;5.80;2.80;;;25.90;62.50;;;;;;4978202;28;20057;-78